4CA9 weather

Randy Champe-Gary Howe Memorial Heliport
Los Angeles, California, United States

Public forecast

Using degrees Fahrenheit for public forecast. Weather courtesy of forecast.io.

Closest aviation weather report (METAR) to Randy Champe-Gary Howe Memorial Heliport

Closest report is Jack Northrop Field Hawthorne Municipal Airport, 4.0 nm (7.5 km) SW. Retrieved 2020/02/16 23:53 UTC (34 minutes ago):

KHHR 162353Z 24008KT 10SM CLR 17/10 A3003 RMK AO2 SLP167 T01670100 10194 20133 56011

Closest aviation forecast (TAF) to Randy Champe-Gary Howe Memorial Heliport

Closest forecast is Los Angeles International Airport, 6.7 nm (12.4 km) WSW. Retrieved 2020-02-17 00:30 UTC (0 seconds ago):

TAF KLAX 162327Z 1700/1806 25008KT P6SM FEW007 FEW280 FM170400 VRB03KT P6SM SCT200 FM170900 VRB03KT 4SM BR OVC007 FM171300 VRB03KT 1SM BR OVC005 FM171700 VRB03KT 6SM HZ SCT008 FM172000 26010KT P6SM SKC FM180300 VRB03KT P6SM SKC